createdAt,value
2018-03-03T00:00:39.853Z,66.03
2018-03-03T00:03:09.702Z,65.20
2018-03-03T00:05:37.941Z,62.00
2018-03-03T00:08:06.190Z,70.37
2018-03-03T00:10:34.469Z,61.90
2018-03-03T00:13:02.729Z,66.83
2018-03-03T00:15:30.976Z,68.10
2018-03-03T00:17:59.233Z,67.93
2018-03-03T00:20:29.526Z,64.10
2018-03-03T00:22:57.783Z,76.40
2018-03-03T00:25:26.963Z,65.00
2018-03-03T00:27:55.299Z,78.67
2018-03-03T00:30:24.325Z,62.97
2018-03-03T00:32:52.594Z,63.63
2018-03-03T00:35:20.846Z,65.13
2018-03-03T00:37:49.093Z,67.20
2018-03-03T00:40:17.364Z,68.10
2018-03-03T00:42:45.846Z,63.20
2018-03-03T00:45:14.098Z,65.63
2018-03-03T00:47:42.570Z,68.00
2018-03-03T00:50:10.822Z,71.37
2018-03-03T00:52:39.074Z,69.20
2018-03-03T00:55:07.809Z,67.70
2018-03-03T00:57:36.058Z,67.83
2018-03-03T01:00:04.295Z,69.40
2018-03-03T01:02:32.573Z,72.33
2018-03-03T01:05:00.818Z,63.13
2018-03-03T01:07:29.070Z,78.23
2018-03-03T01:09:57.786Z,64.27
2018-03-03T01:12:26.123Z,69.10
2018-03-03T01:14:55.141Z,64.10
2018-03-03T01:17:23.418Z,65.63
2018-03-03T01:19:51.678Z,68.63
2018-03-03T01:22:19.913Z,66.17
2018-03-03T01:24:48.193Z,71.67
2018-03-03T01:27:16.442Z,68.10
2018-03-03T01:29:44.782Z,68.73
2018-03-03T01:32:13.877Z,70.37
2018-03-03T01:34:42.126Z,66.80
2018-03-03T01:37:10.382Z,72.00
2018-03-03T01:39:38.646Z,68.50
2018-03-03T01:42:06.894Z,75.37
2018-03-03T01:44:35.134Z,69.00
2018-03-03T01:47:03.405Z,75.77
2018-03-03T01:49:31.659Z,66.70
2018-03-03T01:52:00.162Z,70.97
2018-03-03T01:54:28.679Z,69.17
2018-03-03T01:56:57.270Z,70.00
2018-03-03T01:59:25.532Z,68.30
2018-03-03T02:01:53.785Z,69.47
2018-03-03T02:04:22.794Z,78.00
2018-03-03T02:06:51.049Z,78.70
2018-03-03T02:09:19.316Z,69.13
2018-03-03T02:11:47.558Z,67.43
2018-03-03T02:14:15.810Z,73.60
2018-03-03T02:16:44.651Z,77.07
2018-03-03T02:19:12.949Z,70.87
2018-03-03T02:21:41.189Z,73.60
2018-03-03T02:24:09.461Z,73.27
2018-03-03T02:26:37.711Z,72.10
2018-03-03T02:29:05.950Z,74.37
2018-03-03T02:31:34.999Z,79.27
2018-03-03T02:34:03.246Z,71.40
2018-03-03T02:36:32.261Z,72.70
2018-03-03T02:39:00.582Z,72.83
2018-03-03T02:41:28.827Z,70.90
2018-03-03T02:43:57.088Z,69.43
2018-03-03T02:46:25.355Z,70.60
2018-03-03T02:48:53.608Z,73.67
2018-03-03T02:51:21.850Z,73.17
2018-03-03T02:53:50.122Z,69.57
2018-03-03T02:56:18.375Z,74.77
2018-03-03T02:58:47.323Z,69.80
2018-03-03T03:01:15.771Z,71.90
2018-03-03T03:03:44.028Z,67.10
2018-03-03T03:06:12.270Z,67.90
2018-03-03T03:08:40.547Z,68.30
2018-03-03T03:11:08.792Z,68.77
2018-03-03T03:13:37.042Z,71.60
2018-03-03T03:16:05.314Z,69.10
2018-03-03T03:18:33.574Z,71.00
2018-03-03T03:21:01.816Z,72.90
2018-03-03T03:23:30.158Z,75.40
2018-03-03T03:25:58.406Z,67.97
2018-03-03T03:28:26.653Z,69.17
2018-03-03T03:30:54.932Z,66.13
2018-03-03T03:33:23.184Z,71.97
2018-03-03T03:35:51.437Z,75.37
2018-03-03T03:38:19.710Z,66.70
2018-03-03T03:40:47.954Z,77.07
2018-03-03T03:43:16.967Z,72.00
2018-03-03T03:45:45.677Z,74.20
2018-03-03T03:48:13.935Z,68.63
2018-03-03T03:50:42.182Z,73.00
2018-03-03T03:53:10.457Z,63.37
2018-03-03T03:55:39.474Z,77.20
2018-03-03T03:58:07.730Z,65.63
2018-03-03T04:00:36.554Z,69.27
2018-03-03T04:03:04.797Z,70.27
2018-03-03T04:05:33.314Z,69.37
2018-03-03T04:08:01.647Z,71.50
2018-03-03T04:10:29.897Z,69.10
2018-03-03T04:12:58.146Z,63.90
2018-03-03T04:15:26.422Z,67.77
2018-03-03T04:17:54.665Z,74.67
2018-03-03T04:20:22.911Z,67.90
2018-03-03T04:22:51.178Z,67.63
2018-03-03T04:25:19.434Z,69.07
2018-03-03T04:27:47.688Z,68.23
2018-03-03T04:30:16.146Z,65.17
2018-03-03T04:32:45.162Z,65.50
2018-03-03T04:35:13.410Z,67.30
2018-03-03T04:37:41.690Z,70.37
2018-03-03T04:40:09.934Z,72.23
2018-03-03T04:42:38.194Z,70.53
2018-03-03T04:45:06.466Z,66.53
2018-03-03T04:47:34.852Z,74.13
2018-03-03T04:50:03.081Z,68.70
2018-03-03T04:52:31.423Z,65.60
2018-03-03T04:54:59.661Z,68.40
2018-03-03T04:57:27.910Z,63.13
2018-03-03T05:00:12.866Z,67.13
2018-03-03T05:02:52.399Z,60.87
2018-03-03T05:05:38.368Z,59.83
2018-03-03T05:08:12.302Z,65.90
2018-03-03T05:10:43.420Z,67.30
2018-03-03T05:13:28.445Z,68.60
2018-03-03T05:16:02.246Z,62.37
2018-03-03T05:18:33.737Z,67.60
2018-03-03T05:21:07.766Z,61.13
2018-03-03T05:23:50.894Z,72.53
2018-03-03T05:26:25.222Z,67.17
2018-03-03T05:28:59.117Z,68.67
2018-03-03T05:31:33.201Z,67.27
2018-03-03T05:34:16.330Z,68.80
2018-03-03T05:37:01.338Z,58.50
2018-03-03T05:39:35.154Z,62.30
2018-03-03T05:42:09.329Z,68.27
2018-03-03T05:44:43.342Z,64.53
2018-03-03T05:47:17.302Z,64.77
2018-03-03T05:50:00.282Z,67.03
2018-03-03T05:52:34.126Z,65.00
2018-03-03T05:55:07.949Z,61.87
2018-03-03T05:57:53.178Z,67.97
2018-03-03T06:00:36.306Z,65.03
2018-03-03T06:03:23.550Z,70.27
2018-03-03T06:05:56.469Z,65.10
2018-03-03T06:08:28.239Z,69.50
2018-03-03T06:10:56.490Z,68.53
2018-03-03T06:13:24.740Z,67.70
2018-03-03T06:15:53.498Z,72.10
2018-03-03T06:18:21.753Z,72.60
2018-03-03T06:20:49.997Z,65.40
2018-03-03T06:23:19.042Z,67.67
2018-03-03T06:25:47.298Z,55.40
2018-03-03T06:28:15.628Z,60.00
2018-03-03T06:30:44.690Z,77.63
2018-03-03T06:33:12.945Z,67.33
2018-03-03T06:35:41.194Z,65.90
2018-03-03T06:38:09.773Z,73.30
2018-03-03T06:40:38.021Z,67.73
2018-03-03T06:43:06.274Z,63.63
2018-03-03T06:45:34.546Z,58.97
2018-03-03T06:48:02.803Z,68.27
2018-03-03T06:50:31.058Z,69.47
2018-03-03T06:53:00.098Z,67.60
2018-03-03T06:55:28.345Z,71.70
2018-03-03T06:57:56.581Z,65.13
2018-03-03T07:00:25.246Z,63.23
2018-03-03T07:02:54.517Z,75.47
2018-03-03T07:05:23.190Z,68.53
2018-03-03T07:07:52.221Z,66.10
2018-03-03T07:10:20.474Z,65.20
2018-03-03T07:12:48.722Z,65.50
2018-03-03T07:15:16.990Z,67.70
2018-03-03T07:17:45.238Z,71.30
2018-03-03T07:20:13.490Z,69.40
2018-03-03T07:22:42.185Z,65.90
2018-03-03T07:25:10.430Z,67.27
2018-03-03T07:27:38.679Z,64.20
2018-03-03T07:30:06.953Z,68.27
2018-03-03T07:32:35.198Z,65.67
2018-03-03T07:35:03.455Z,63.40
2018-03-03T07:37:31.722Z,65.13
2018-03-03T07:39:59.972Z,64.83
2018-03-03T07:42:28.450Z,64.37
2018-03-03T07:44:56.993Z,65.73
2018-03-03T07:47:25.244Z,68.70
2018-03-03T07:49:53.481Z,67.83
2018-03-03T07:52:22.522Z,65.73
2018-03-03T07:54:50.765Z,60.93
2018-03-03T07:57:19.827Z,64.30
2018-03-03T07:59:48.137Z,68.20
2018-03-03T08:02:17.162Z,64.73
2018-03-03T08:04:45.419Z,65.87
2018-03-03T08:07:13.998Z,69.20
2018-03-03T08:09:42.245Z,69.93
2018-03-03T08:12:10.494Z,68.43
2018-03-03T08:14:38.765Z,71.20
2018-03-03T08:17:07.026Z,65.90
2018-03-03T08:19:35.269Z,74.30
2018-03-03T08:22:03.553Z,65.83
2018-03-03T08:24:32.558Z,68.43
2018-03-03T08:27:00.811Z,68.10
2018-03-03T08:29:29.706Z,67.20
2018-03-03T08:31:57.920Z,69.87
2018-03-03T08:34:26.166Z,70.57
2018-03-03T08:36:54.442Z,78.37
2018-03-03T08:39:23.463Z,64.87
2018-03-03T08:41:51.702Z,70.47
2018-03-03T08:44:19.974Z,82.57
2018-03-03T08:46:48.214Z,68.17
2018-03-03T08:49:16.471Z,73.80
2018-03-03T08:51:45.078Z,68.10
2018-03-03T08:54:13.322Z,62.57
2018-03-03T08:56:41.579Z,69.87
2018-03-03T08:59:09.854Z,70.17
2018-03-03T09:01:38.871Z,68.07
2018-03-03T09:04:07.132Z,77.53
2018-03-03T09:06:35.398Z,72.27
2018-03-03T09:09:03.754Z,76.67
2018-03-03T09:11:32.006Z,66.87
2018-03-03T09:14:00.489Z,71.67
2018-03-03T09:16:28.741Z,69.07
2018-03-03T09:18:56.978Z,73.47
2018-03-03T09:21:26.018Z,83.30
2018-03-03T09:23:54.265Z,69.83
2018-03-03T09:26:23.278Z,68.13
2018-03-03T09:28:51.554Z,71.63
2018-03-03T09:31:19.807Z,72.00
2018-03-03T09:33:48.050Z,71.93
2018-03-03T09:36:17.130Z,78.57
2018-03-03T09:38:45.386Z,70.30
2018-03-03T09:41:13.697Z,69.73
2018-03-03T09:43:41.957Z,70.33
2018-03-03T09:46:10.255Z,74.60
2018-03-03T09:48:38.457Z,73.07
2018-03-03T09:51:06.730Z,68.13
2018-03-03T09:53:34.979Z,73.53
2018-03-03T09:56:03.226Z,69.00
2018-03-03T09:58:31.658Z,69.87
2018-03-03T10:01:00.847Z,67.80
2018-03-03T10:03:29.224Z,67.67
2018-03-03T10:05:57.689Z,71.37
2018-03-03T10:08:25.918Z,69.30
2018-03-03T10:10:54.670Z,72.67
2018-03-03T10:13:23.074Z,72.43
2018-03-03T10:15:52.231Z,72.80
2018-03-03T10:18:20.457Z,73.10
2018-03-03T10:20:50.739Z,79.70
2018-03-03T10:23:19.022Z,69.60
2018-03-03T10:25:47.401Z,76.00
2018-03-03T10:28:15.678Z,71.63
2018-03-03T10:30:43.939Z,68.43
2018-03-03T10:33:12.185Z,71.00
2018-03-03T10:35:40.462Z,74.93
2018-03-03T10:38:08.722Z,74.13
2018-03-03T10:40:37.733Z,75.00
2018-03-03T10:43:06.143Z,78.30
2018-03-03T10:45:34.444Z,68.83
2018-03-03T10:48:02.690Z,81.47
2018-03-03T10:50:30.973Z,82.17
2018-03-03T10:52:59.213Z,73.60
2018-03-03T10:55:27.470Z,77.00
2018-03-03T10:57:55.802Z,77.33
2018-03-03T11:00:27.877Z,75.90
2018-03-03T11:02:56.561Z,77.23
2018-03-03T11:05:24.805Z,77.30
2018-03-03T11:07:53.054Z,79.10
2018-03-03T11:10:22.272Z,76.07
2018-03-03T11:12:51.586Z,70.47
2018-03-03T11:15:19.915Z,75.73
2018-03-03T11:17:48.190Z,80.03
2018-03-03T11:20:16.437Z,76.30
2018-03-03T11:22:44.686Z,76.03
2018-03-03T11:25:13.269Z,72.80
2018-03-03T11:27:41.559Z,83.67
2018-03-03T11:30:10.542Z,77.63
2018-03-03T11:32:38.818Z,73.20
2018-03-03T11:35:07.067Z,79.20
2018-03-03T11:37:35.389Z,78.10
2018-03-03T11:40:03.654Z,81.37
2018-03-03T11:42:31.905Z,75.83
2018-03-03T11:45:00.156Z,77.73
2018-03-03T11:47:28.850Z,80.73
2018-03-03T11:49:57.062Z,76.00
2018-03-03T11:52:25.477Z,75.60
2018-03-03T11:54:53.742Z,80.10
2018-03-03T11:57:21.990Z,76.90
2018-03-03T11:59:50.413Z,79.40
2018-03-03T12:02:18.689Z,76.10
2018-03-03T12:04:46.939Z,82.73
2018-03-03T12:07:15.453Z,77.37
2018-03-03T12:09:44.017Z,76.87
2018-03-03T12:12:13.238Z,73.87
2018-03-03T12:14:41.638Z,79.23
2018-03-03T12:17:09.894Z,76.80
2018-03-03T12:19:38.150Z,85.43
2018-03-03T12:22:06.443Z,90.70
2018-03-03T12:24:35.025Z,91.87
2018-03-03T12:27:03.268Z,79.50
2018-03-03T12:29:31.638Z,81.60
2018-03-03T12:31:59.938Z,77.90
2018-03-03T12:34:28.342Z,80.93
2018-03-03T12:36:57.840Z,87.30
2018-03-03T12:39:27.278Z,91.77
2018-03-03T12:41:57.478Z,80.27
2018-03-03T12:44:26.470Z,83.47
2018-03-03T12:46:54.947Z,81.33
2018-03-03T12:49:23.261Z,89.73
2018-03-03T12:51:52.274Z,88.90
2018-03-03T12:54:20.625Z,78.27
2018-03-03T12:56:49.646Z,83.13
2018-03-03T12:59:17.886Z,81.33
2018-03-03T13:01:46.160Z,81.20
2018-03-03T13:04:14.410Z,84.27
2018-03-03T13:06:42.659Z,82.00
2018-03-03T13:09:11.261Z,83.57
2018-03-03T13:11:39.522Z,84.83
2018-03-03T13:14:07.805Z,81.43
2018-03-03T13:16:36.076Z,90.03
2018-03-03T13:19:05.373Z,92.67
2018-03-03T13:21:33.697Z,80.03
2018-03-03T13:24:01.972Z,77.97
2018-03-03T13:26:30.226Z,94.10
2018-03-03T13:28:58.473Z,86.47
2018-03-03T13:31:27.011Z,80.27
2018-03-03T13:33:56.226Z,82.87
2018-03-03T13:36:24.470Z,85.80
2018-03-03T13:38:52.751Z,86.93
2018-03-03T13:41:21.038Z,101.23
2018-03-03T13:43:49.413Z,85.97
2018-03-03T13:46:17.818Z,96.77
2018-03-03T13:48:47.103Z,82.40
2018-03-03T13:51:15.488Z,93.70
2018-03-03T13:53:44.189Z,130.70
2018-03-03T13:56:13.348Z,93.57
2018-03-03T13:58:42.774Z,84.93
2018-03-03T14:01:11.231Z,91.77
2018-03-03T14:03:41.558Z,100.93
2018-03-03T14:06:11.014Z,109.50
2018-03-03T14:08:39.429Z,98.40
2018-03-03T14:11:07.857Z,99.50
2018-03-03T14:13:37.352Z,94.23
2018-03-03T14:16:07.526Z,95.70
2018-03-03T14:18:36.874Z,86.57
2018-03-03T14:21:17.046Z,96.03
2018-03-03T14:23:45.316Z,97.43
2018-03-03T14:26:15.547Z,94.87
2018-03-03T14:28:47.117Z,103.23
2018-03-03T14:31:15.379Z,87.23
2018-03-03T14:33:46.032Z,97.57
2018-03-03T14:36:17.625Z,132.07
2018-03-03T14:38:49.431Z,100.43
2018-03-03T14:41:18.347Z,98.93
2018-03-03T14:43:51.227Z,94.40
2018-03-03T14:46:22.764Z,94.53
2018-03-03T14:48:54.092Z,88.73
2018-03-03T14:51:22.654Z,101.80
2018-03-03T14:53:51.165Z,90.73
2018-03-03T14:56:19.561Z,88.83
2018-03-03T14:58:47.806Z,95.03
2018-03-03T15:01:16.232Z,93.73
2018-03-03T15:03:44.566Z,98.80
2018-03-03T15:06:12.947Z,89.83
2018-03-03T15:08:46.465Z,86.63
2018-03-03T15:11:19.149Z,94.97
2018-03-03T15:13:51.452Z,85.90
2018-03-03T15:16:20.307Z,93.77
2018-03-03T15:18:50.531Z,87.97
2018-03-03T15:21:19.586Z,91.33
2018-03-03T15:23:47.876Z,97.60
2018-03-03T15:26:16.260Z,95.90
2018-03-03T15:28:44.660Z,94.97
2018-03-03T15:31:13.811Z,89.10
2018-03-03T15:33:43.418Z,93.17
2018-03-03T15:36:12.003Z,89.40
2018-03-03T15:38:41.246Z,104.10
2018-03-03T15:41:10.266Z,89.63
2018-03-03T15:43:38.630Z,88.53
2018-03-03T15:46:06.975Z,90.40
2018-03-03T15:48:35.259Z,86.27
2018-03-03T15:51:06.622Z,89.00
2018-03-03T15:53:36.772Z,91.33
2018-03-03T15:56:14.240Z,90.90
2018-03-03T15:58:45.912Z,99.53
2018-03-03T16:01:14.358Z,86.70
2018-03-03T16:03:43.470Z,82.00
2018-03-03T16:06:24.954Z,92.47
2018-03-03T16:08:53.945Z,92.63
2018-03-03T16:11:22.420Z,88.97
2018-03-03T16:13:52.680Z,77.87
2018-03-03T16:16:22.015Z,77.03
2018-03-03T16:18:50.624Z,86.63
2018-03-03T16:21:19.258Z,85.70
2018-03-03T16:23:49.166Z,85.47
2018-03-03T16:26:21.683Z,93.37
2018-03-03T16:28:50.002Z,91.33
2018-03-03T16:31:18.355Z,82.60
2018-03-03T16:33:46.757Z,80.67
2018-03-03T16:36:16.171Z,100.10
2018-03-03T16:38:46.870Z,96.30
2018-03-03T16:41:19.723Z,96.03
2018-03-03T16:43:47.979Z,94.87
2018-03-03T16:46:16.384Z,86.93
2018-03-03T16:48:46.028Z,82.47
2018-03-03T16:51:15.220Z,92.30
2018-03-03T16:53:45.499Z,87.30
2018-03-03T16:56:15.260Z,83.47
2018-03-03T16:58:43.759Z,81.77
2018-03-03T17:01:12.785Z,80.23
2018-03-03T17:03:42.680Z,83.00
2018-03-03T17:06:11.074Z,93.57
2018-03-03T17:08:42.030Z,86.83
2018-03-03T17:11:14.542Z,84.60
2018-03-03T17:13:42.902Z,82.50
2018-03-03T17:16:14.635Z,87.53
2018-03-03T17:18:43.426Z,89.80
2018-03-03T17:21:11.795Z,79.80
2018-03-03T17:23:41.386Z,83.40
2018-03-03T17:26:09.778Z,108.97
2018-03-03T17:28:38.214Z,78.67
2018-03-03T17:31:07.391Z,85.63
2018-03-03T17:33:37.161Z,83.77
2018-03-03T17:36:07.519Z,83.90
2018-03-03T17:38:37.957Z,80.70
2018-03-03T17:41:11.071Z,80.73
2018-03-03T17:43:46.592Z,83.37
2018-03-03T17:46:17.675Z,86.37
2018-03-03T17:48:48.470Z,77.43
2018-03-03T17:51:17.046Z,80.40
2018-03-03T17:53:45.336Z,82.37
2018-03-03T17:56:14.325Z,75.83
2018-03-03T17:58:42.601Z,84.60
2018-03-03T18:01:11.942Z,85.30
2018-03-03T18:03:40.319Z,79.93
2018-03-03T18:06:08.979Z,86.70
2018-03-03T18:08:38.322Z,92.60
2018-03-03T18:11:09.739Z,87.43
2018-03-03T18:13:38.293Z,84.47
2018-03-03T18:16:10.559Z,84.40
2018-03-03T18:18:40.168Z,78.57
2018-03-03T18:21:09.302Z,90.23
2018-03-03T18:23:38.874Z,81.57
2018-03-03T18:26:07.256Z,80.77
2018-03-03T18:28:35.766Z,79.27
2018-03-03T18:31:04.402Z,82.47
2018-03-03T18:33:32.826Z,84.63
2018-03-03T18:36:01.230Z,77.57
2018-03-03T18:38:33.344Z,91.10
2018-03-03T18:41:01.626Z,79.10
2018-03-03T18:43:30.088Z,78.10
2018-03-03T18:45:58.426Z,90.60
2018-03-03T18:48:27.446Z,76.60
2018-03-03T18:50:55.758Z,83.67
2018-03-03T18:53:25.103Z,76.27
2018-03-03T18:55:54.118Z,83.57
2018-03-03T18:58:22.632Z,84.87
2018-03-03T19:00:51.206Z,81.83
2018-03-03T19:03:19.502Z,84.30
2018-03-03T19:05:47.884Z,82.33
2018-03-03T19:08:16.292Z,81.30
2018-03-03T19:10:46.170Z,83.10
2018-03-03T19:13:14.558Z,82.80
2018-03-03T19:15:42.963Z,89.57
2018-03-03T19:18:13.159Z,85.40
2018-03-03T19:20:43.418Z,91.20
2018-03-03T19:23:18.283Z,87.73
2018-03-03T19:25:50.728Z,84.40
2018-03-03T19:28:19.298Z,83.40
2018-03-03T19:30:48.325Z,80.90
2018-03-03T19:33:16.666Z,81.53
2018-03-03T19:35:45.054Z,83.00
2018-03-03T19:38:14.077Z,82.97
2018-03-03T19:40:42.603Z,84.33
2018-03-03T19:43:10.926Z,88.10
2018-03-03T19:45:40.533Z,83.33
2018-03-03T19:48:08.766Z,82.67
2018-03-03T19:50:38.148Z,80.73
2018-03-03T19:53:06.430Z,78.70
2018-03-03T19:55:34.665Z,87.67
2018-03-03T19:58:02.934Z,85.30
2018-03-03T20:00:31.950Z,88.70
2018-03-03T20:03:00.460Z,82.70
2018-03-03T20:05:29.946Z,83.47
2018-03-03T20:07:58.250Z,80.97
2018-03-03T20:10:26.656Z,81.80
2018-03-03T20:12:55.962Z,81.07
2018-03-03T20:15:25.122Z,86.07
2018-03-03T20:17:54.534Z,81.20
2018-03-03T20:20:23.093Z,83.73
2018-03-03T20:22:51.613Z,78.27
2018-03-03T20:25:19.894Z,79.70
2018-03-03T20:27:48.221Z,85.87
2018-03-03T20:30:16.496Z,80.40
2018-03-03T20:32:44.806Z,73.30
2018-03-03T20:35:13.384Z,73.40
2018-03-03T20:37:41.635Z,78.50
2018-03-03T20:40:12.407Z,72.27
2018-03-03T20:42:40.823Z,82.03
2018-03-03T20:45:11.015Z,78.50
2018-03-03T20:47:39.753Z,80.20
2018-03-03T20:50:08.479Z,73.40
2018-03-03T20:52:36.749Z,77.10
2018-03-03T20:55:06.058Z,75.50
2018-03-03T20:57:34.463Z,72.83
2018-03-03T21:00:04.662Z,78.93
2018-03-03T21:02:33.954Z,85.10
2018-03-03T21:05:02.381Z,76.37
2018-03-03T21:07:31.648Z,83.37
2018-03-03T21:10:03.324Z,78.07
2018-03-03T21:12:31.779Z,84.30
2018-03-03T21:15:00.159Z,81.30
2018-03-03T21:17:28.426Z,80.20
2018-03-03T21:19:56.680Z,80.00
2018-03-03T21:22:24.990Z,76.33
2018-03-03T21:24:54.371Z,79.87
2018-03-03T21:27:22.623Z,79.33
2018-03-03T21:29:50.876Z,82.60
2018-03-03T21:32:19.518Z,76.60
2018-03-03T21:34:47.807Z,79.23
2018-03-03T21:37:16.187Z,79.70
2018-03-03T21:39:44.594Z,78.20
2018-03-03T21:42:13.611Z,76.23
2018-03-03T21:44:41.866Z,80.37
2018-03-03T21:47:10.354Z,75.97
2018-03-03T21:49:39.401Z,75.53
2018-03-03T21:52:07.646Z,78.97
2018-03-03T21:54:36.461Z,78.60
2018-03-03T21:57:05.062Z,79.70
2018-03-03T21:59:33.443Z,80.50
2018-03-03T22:02:01.719Z,78.70
2018-03-03T22:04:30.229Z,73.00
2018-03-03T22:06:59.366Z,79.87
2018-03-03T22:09:27.639Z,81.53
2018-03-03T22:11:55.890Z,82.07
2018-03-03T22:14:24.156Z,78.00
2018-03-03T22:16:53.398Z,80.43
2018-03-03T22:19:21.778Z,77.93
2018-03-03T22:21:50.030Z,83.30
2018-03-03T22:24:18.298Z,79.27
2018-03-03T22:26:46.874Z,73.07
2018-03-03T22:29:15.894Z,75.73
2018-03-03T22:31:44.270Z,76.50
2018-03-03T22:34:12.902Z,84.90
2018-03-03T22:36:41.166Z,74.03
2018-03-03T22:39:09.789Z,83.07
2018-03-03T22:41:38.035Z,77.17
2018-03-03T22:44:06.419Z,75.37
2018-03-03T22:46:34.698Z,76.03
2018-03-03T22:49:04.103Z,74.77
2018-03-03T22:51:32.363Z,75.87
2018-03-03T22:54:00.622Z,71.53
2018-03-03T22:56:28.926Z,84.30
2018-03-03T22:58:57.306Z,85.17
2018-03-03T23:01:25.758Z,79.53
2018-03-03T23:03:54.070Z,82.57
2018-03-03T23:06:23.362Z,73.33
2018-03-03T23:08:51.782Z,81.47
2018-03-03T23:11:20.787Z,75.10
2018-03-03T23:13:49.159Z,74.70
2018-03-03T23:16:18.189Z,76.57
2018-03-03T23:18:46.442Z,73.13
2018-03-03T23:21:14.694Z,76.87
2018-03-03T23:23:43.057Z,77.53
2018-03-03T23:26:11.334Z,72.97
2018-03-03T23:28:40.053Z,88.90
2018-03-03T23:31:09.081Z,78.07
2018-03-03T23:33:37.325Z,79.47
2018-03-03T23:36:05.579Z,78.67
2018-03-03T23:38:33.846Z,77.33
2018-03-03T23:41:02.214Z,72.50
2018-03-03T23:43:30.460Z,77.00
2018-03-03T23:45:59.041Z,76.27
2018-03-03T23:48:27.286Z,79.73
2018-03-03T23:50:55.538Z,72.80
2018-03-03T23:53:23.829Z,77.13
2018-03-03T23:55:52.834Z,76.53
2018-03-03T23:58:21.876Z,73.23
